Terminal Aerodrome Forecast
Issued by NWS Duluth, MN

Home | Current Version | Previous Version | Text Only | Print | Product List | Glossary On
Versions: 1 2 3 4 5 6 7 8 9 10 11 12 13 14 15 16 17 18 19
000
FTUS43 KDLH 251700
TAFDLH
TAF
KDLH 251738Z 2518/2618 07018G27KT 1 1/2SM -RA BR OVC002
      TEMPO 2518/2520 3SM -RA BR OVC006
     FM252000 06013G20KT 3SM -RA BR OVC008
      TEMPO 2520/2524 1SM BR
     FM260100 36006KT 1SM -DZ BR OVC004
     FM260600 VRB03KT 3SM BR OVC007
     FM261400 09011KT P6SM OVC015=

USA.gov is the U.S. government's official web portal to all federal, state and local government web resources and services.